Time;durP1;ratioP1;P1;durP2;ratioP2;P2;SDS_P1;SDS_P2;PMS_P1;PMS_P2;Temp;Humidity;BMP_temperature;BMP_pressure;BME280_temperature;BME280_humidity;BME280_pressure;Samples;Min_cycle;Max_cycle;Signal;HPM_P1;HPM_P2
2023/06/02 00:02:16;;;;;;;3.65;1.10;;;20.40;56.30;;;;;;5072495;28;20048;-61
2023/06/02 00:04:42;;;;;;;3.55;1.13;;;20.30;56.20;;;;;;5072719;28;20050;-61
2023/06/02 00:07:07;;;;;;;3.45;1.05;;;20.30;56.20;;;;;;5071587;28;20407;-61
2023/06/02 00:09:37;;;;;;;2.13;1.00;;;20.40;56.30;;;;;;5071482;28;20137;-62
2023/06/02 00:12:02;;;;;;;5.50;1.08;;;20.30;56.20;;;;;;5071862;28;20090;-62
2023/06/02 00:14:28;;;;;;;2.75;0.93;;;20.30;56.20;;;;;;5072426;28;20064;-61
2023/06/02 00:16:55;;;;;;;4.03;1.05;;;20.30;56.20;;;;;;5072597;28;20547;-62
2023/06/02 00:19:23;;;;;;;4.18;1.23;;;20.30;56.20;;;;;;5071537;28;20480;-62
2023/06/02 00:21:51;;;;;;;1.75;0.80;;;20.30;56.20;;;;;;5072670;28;20044;-61
2023/06/02 00:24:16;;;;;;;5.63;1.13;;;20.30;56.20;;;;;;5072157;28;20112;-62
2023/06/02 00:26:42;;;;;;;3.22;1.05;;;20.30;56.20;;;;;;5070272;28;20408;-62
2023/06/02 00:29:07;;;;;;;2.70;1.10;;;20.30;56.20;;;;;;5071983;28;20160;-62
2023/06/02 00:31:34;;;;;;;1.90;0.75;;;20.30;56.20;;;;;;5071058;28;20135;-62
2023/06/02 00:33:59;;;;;;;3.38;1.02;;;20.30;56.20;;;;;;5071874;28;20044;-62
2023/06/02 00:36:25;;;;;;;3.00;0.90;;;20.30;56.20;;;;;;5072108;28;20041;-62
2023/06/02 00:38:50;;;;;;;3.92;1.00;;;20.30;56.20;;;;;;5072369;28;20045;-61
2023/06/02 00:41:16;;;;;;;2.97;0.98;;;20.20;56.20;;;;;;5070976;28;20048;-62
2023/06/02 00:43:41;;;;;;;3.25;1.08;;;20.30;56.20;;;;;;5070857;28;20055;-62
2023/06/02 00:46:07;;;;;;;3.10;1.02;;;20.20;56.10;;;;;;5072172;28;20062;-62
2023/06/02 00:48:32;;;;;;;2.72;0.90;;;20.30;56.20;;;;;;5071577;28;20061;-61
2023/06/02 00:50:58;;;;;;;3.90;1.00;;;20.20;56.10;;;;;;5072065;28;20040;-62
2023/06/02 00:53:24;;;;;;;4.22;1.00;;;20.20;56.20;;;;;;5070573;28;20459;-61
2023/06/02 00:55:51;;;;;;;3.78;0.82;;;20.20;56.20;;;;;;5072862;28;20053;-62
2023/06/02 00:58:17;;;;;;;2.43;0.90;;;20.20;56.20;;;;;;5075848;28;20059;-62
2023/06/02 01:00:43;;;;;;;3.13;1.25;;;20.20;56.10;;;;;;5076139;28;20492;-61
2023/06/02 01:03:08;;;;;;;3.33;1.05;;;20.20;56.10;;;;;;5074937;28;20464;-61
2023/06/02 01:05:36;;;;;;;3.28;0.80;;;20.20;56.20;;;;;;5076037;28;20456;-61
2023/06/02 01:08:02;;;;;;;2.95;1.00;;;20.20;56.10;;;;;;5057836;28;20048;-61
2023/06/02 01:10:28;;;;;;;3.70;1.30;;;20.20;56.20;;;;;;5074856;28;20090;-61
2023/06/02 01:12:53;;;;;;;2.70;0.90;;;20.20;56.10;;;;;;5074511;28;20044;-62
2023/06/02 01:15:19;;;;;;;1.90;0.90;;;20.20;56.10;;;;;;5074629;28;20036;-61
2023/06/02 01:17:46;;;;;;;4.22;1.35;;;20.20;56.10;;;;;;5075775;28;20048;-61
2023/06/02 01:20:12;;;;;;;3.80;0.93;;;20.20;56.10;;;;;;5073961;28;20044;-61
2023/06/02 01:23:08;;;;;;;3.08;1.00;;;20.20;56.10;;;;;;5074759;28;20044;-62
2023/06/02 01:25:36;;;;;;;3.30;1.00;;;20.20;56.00;;;;;;5070724;28;20045;-62
2023/06/02 01:28:02;;;;;;;3.03;0.90;;;20.20;56.10;;;;;;5075140;28;20056;-61
2023/06/02 01:30:28;;;;;;;2.80;1.13;;;20.20;56.10;;;;;;5074402;28;20044;-61
2023/06/02 01:33:13;;;;;;;4.80;0.90;;;20.20;56.10;;;;;;5073965;28;20097;-61
2023/06/02 01:35:44;;;;;;;2.83;1.00;;;20.20;56.20;;;;;;5074430;28;20037;-62
2023/06/02 01:38:10;;;;;;;2.47;1.10;;;20.20;56.10;;;;;;5074328;28;20076;-61
2023/06/02 01:40:35;;;;;;;3.17;1.05;;;20.20;56.10;;;;;;5074224;28;20068;-61
2023/06/02 01:43:01;;;;;;;4.78;1.23;;;20.10;56.10;;;;;;5074091;28;20539;-62
2023/06/02 01:45:27;;;;;;;3.22;1.10;;;20.10;56.10;;;;;;5072679;28;20047;-61
2023/06/02 01:47:58;;;;;;;5.85;1.23;;;20.20;56.10;;;;;;5074084;28;20215;-62
2023/06/02 01:50:24;;;;;;;3.33;0.90;;;20.20;56.10;;;;;;5055900;28;20091;-62
2023/06/02 01:52:50;;;;;;;3.42;1.02;;;20.10;56.10;;;;;;5075236;28;20072;-62
2023/06/02 01:55:16;;;;;;;3.42;1.08;;;20.10;56.70;;;;;;5074660;28;20444;-62
2023/06/02 01:57:41;;;;;;;3.05;1.05;;;20.10;56.10;;;;;;5073126;28;20048;-62
2023/06/02 02:00:08;;;;;;;2.10;0.85;;;20.10;56.10;;;;;;5074419;28;20036;-61
2023/06/02 02:02:34;;;;;;;3.35;1.10;;;20.10;56.10;;;;;;5054997;28;20072;-61
2023/06/02 02:04:59;;;;;;;1.70;0.98;;;20.10;56.10;;;;;;5053901;28;20085;-61
2023/06/02 02:07:25;;;;;;;3.30;1.10;;;20.10;56.10;;;;;;5053159;28;20036;-62
2023/06/02 02:09:51;;;;;;;5.07;1.20;;;20.10;56.10;;;;;;5054667;28;20041;-61
2023/06/02 02:12:16;;;;;;;3.50;1.00;;;20.10;56.10;;;;;;5053421;28;20049;-62
2023/06/02 02:14:42;;;;;;;3.88;1.08;;;20.10;56.80;;;;;;5053340;28;20045;-62
2023/06/02 02:17:09;;;;;;;2.75;1.05;;;20.10;56.10;;;;;;5054448;28;20084;-62
2023/06/02 02:19:36;;;;;;;3.45;0.93;;;20.10;56.10;;;;;;5052510;28;20044;-61
2023/06/02 02:22:01;;;;;;;2.78;1.20;;;20.10;56.10;;;;;;5054295;28;20044;-62
2023/06/02 02:24:27;;;;;;;2.67;1.00;;;20.10;56.10;;;;;;5054300;28;20121;-61
2023/06/02 02:26:52;;;;;;;3.33;1.00;;;20.10;56.10;;;;;;5053407;28;20480;-61
2023/06/02 02:29:18;;;;;;;3.40;1.00;;;20.10;56.10;;;;;;5054032;28;20052;-62
2023/06/02 02:31:44;;;;;;;3.60;1.35;;;20.10;56.10;;;;;;5054449;28;20041;-61
2023/06/02 02:34:10;;;;;;;3.45;1.08;;;20.10;56.20;;;;;;5053172;28;20500;-61
2023/06/02 02:36:35;;;;;;;3.35;0.98;;;20.00;56.10;;;;;;5054056;28;20044;-61
2023/06/02 02:39:02;;;;;;;3.05;1.05;;;20.00;56.10;;;;;;5054290;28;20041;-61
2023/06/02 02:41:28;;;;;;;3.75;1.10;;;20.00;56.10;;;;;;5052794;28;20048;-62
2023/06/02 02:43:54;;;;;;;3.83;1.00;;;20.00;56.10;;;;;;5053742;28;20041;-62
2023/06/02 02:46:19;;;;;;;2.50;0.98;;;20.00;56.10;;;;;;5053804;28;20056;-62
2023/06/02 02:48:45;;;;;;;4.53;1.10;;;20.00;56.10;;;;;;5053378;28;20044;-62
2023/06/02 02:51:10;;;;;;;3.42;1.00;;;20.00;56.10;;;;;;5052214;28;20041;-61
2023/06/02 02:53:36;;;;;;;4.10;1.20;;;20.00;56.10;;;;;;5053271;28;20041;-62
2023/06/02 02:56:02;;;;;;;2.25;1.08;;;20.00;56.10;;;;;;5053395;28;20186;-62
2023/06/02 02:58:28;;;;;;;3.95;1.20;;;20.00;56.10;;;;;;5053571;28;20072;-61
2023/06/02 03:00:55;;;;;;;1.83;0.70;;;20.00;56.10;;;;;;5052974;28;20049;-61
2023/06/02 03:03:21;;;;;;;3.78;1.20;;;20.00;56.10;;;;;;5053392;28;20453;-61
2023/06/02 03:05:47;;;;;;;1.60;0.63;;;20.00;56.80;;;;;;5053427;28;20495;-61
2023/06/02 03:08:15;;;;;;;2.88;0.88;;;20.00;56.10;;;;;;5052463;28;20488;-62
2023/06/02 03:10:41;;;;;;;4.43;0.90;;;20.00;56.10;;;;;;5053385;28;20532;-62
2023/06/02 03:13:06;;;;;;;3.60;1.10;;;20.00;56.10;;;;;;5052721;28;20171;-62
2023/06/02 03:15:33;;;;;;;3.63;1.30;;;20.00;56.10;;;;;;5052623;28;20049;-62
2023/06/02 03:17:59;;;;;;;4.28;1.02;;;20.00;56.10;;;;;;5051701;28;20076;-62
2023/06/02 03:20:25;;;;;;;3.65;1.17;;;20.00;56.10;;;;;;5052899;28;20123;-62
2023/06/02 03:22:51;;;;;;;1.45;0.77;;;20.00;56.10;;;;;;5051325;28;20049;-62
2023/06/02 03:25:21;;;;;;;3.00;1.05;;;19.90;56.10;;;;;;5053103;28;20147;-62
2023/06/02 03:27:47;;;;;;;3.10;0.90;;;19.90;56.10;;;;;;5052827;28;20059;-61
2023/06/02 03:30:13;;;;;;;4.55;0.90;;;19.90;56.10;;;;;;5052150;28;20064;-62
2023/06/02 03:32:38;;;;;;;3.03;1.00;;;19.90;56.10;;;;;;5053143;28;20376;-62
2023/06/02 03:35:04;;;;;;;2.55;1.00;;;19.90;56.10;;;;;;5053129;28;20090;-62
2023/06/02 03:37:30;;;;;;;2.58;0.80;;;20.00;56.10;;;;;;5052007;28;20382;-62
2023/06/02 03:39:55;;;;;;;4.78;1.15;;;19.90;56.10;;;;;;5052840;28;20045;-62
2023/06/02 03:42:21;;;;;;;4.30;1.20;;;19.90;56.10;;;;;;5052718;28;20047;-62
2023/06/02 03:44:47;;;;;;;2.70;1.20;;;19.90;56.10;;;;;;5050790;28;20395;-62
2023/06/02 03:47:12;;;;;;;3.13;1.10;;;19.90;56.10;;;;;;5052889;28;20037;-61
2023/06/02 03:49:38;;;;;;;2.47;0.98;;;19.90;56.10;;;;;;5053038;28;20041;-61
2023/06/02 03:52:04;;;;;;;4.10;1.00;;;19.90;56.10;;;;;;5051985;28;20037;-62
2023/06/02 03:54:29;;;;;;;3.05;1.02;;;19.90;56.10;;;;;;5052452;28;20052;-61
2023/06/02 03:56:55;;;;;;;3.08;0.90;;;19.90;56.10;;;;;;5051986;28;20033;-62
2023/06/02 03:59:21;;;;;;;3.47;0.80;;;19.90;56.10;;;;;;5052214;28;20062;-62
2023/06/02 04:01:46;;;;;;;3.60;1.10;;;19.90;56.10;;;;;;5064722;28;20109;-62
2023/06/02 04:04:12;;;;;;;2.22;0.82;;;19.90;56.10;;;;;;5071210;28;20040;-62
2023/06/02 04:06:40;;;;;;;3.55;0.90;;;19.90;56.20;;;;;;5070604;28;20037;-61
2023/06/02 04:09:07;;;;;;;4.65;1.08;;;19.90;56.20;;;;;;5071366;28;20055;-63
2023/06/02 04:11:32;;;;;;;3.03;1.02;;;19.90;56.20;;;;;;5071883;28;20044;-62
2023/06/02 04:13:58;;;;;;;2.30;0.82;;;19.90;56.10;;;;;;5072522;28;20525;-62
2023/06/02 04:16:23;;;;;;;3.53;0.82;;;20.00;56.20;;;;;;5071271;28;20044;-62
2023/06/02 04:18:49;;;;;;;3.75;0.93;;;20.00;56.30;;;;;;5071923;28;20070;-61
2023/06/02 04:21:15;;;;;;;3.15;0.98;;;20.00;56.30;;;;;;5072316;28;20127;-62
2023/06/02 04:23:40;;;;;;;2.22;0.70;;;20.00;56.30;;;;;;5072500;28;20094;-62
2023/06/02 04:26:06;;;;;;;3.33;1.00;;;20.00;56.30;;;;;;5071482;28;20044;-62
2023/06/02 04:28:31;;;;;;;3.35;1.00;;;20.00;56.30;;;;;;5072320;28;20135;-62
2023/06/02 04:30:58;;;;;;;2.45;0.75;;;20.00;56.30;;;;;;5073831;28;20048;-62
2023/06/02 04:33:24;;;;;;;2.57;0.87;;;20.00;56.30;;;;;;5075744;28;20040;-62
2023/06/02 04:35:50;;;;;;;3.38;1.00;;;20.00;56.30;;;;;;5075398;28;20128;-62
2023/06/02 04:38:16;;;;;;;3.30;0.90;;;20.00;56.30;;;;;;5074806;28;20494;-62
2023/06/02 04:40:42;;;;;;;3.40;0.82;;;20.00;56.20;;;;;;5074402;28;20512;-62
2023/06/02 04:43:08;;;;;;;2.47;0.90;;;20.00;56.30;;;;;;5075980;28;20044;-61
2023/06/02 04:45:33;;;;;;;3.28;1.02;;;20.00;56.30;;;;;;5074971;28;20135;-61
2023/06/02 04:48:00;;;;;;;3.40;0.90;;;20.10;56.30;;;;;;5075414;28;20052;-62
2023/06/02 04:50:27;;;;;;;4.72;0.80;;;20.10;56.40;;;;;;5075730;28;20051;-62
2023/06/02 04:52:52;;;;;;;2.28;0.75;;;20.10;56.40;;;;;;5076077;28;20091;-62
2023/06/02 04:55:18;;;;;;;5.22;1.15;;;20.10;56.40;;;;;;5075181;28;20084;-62
2023/06/02 04:57:43;;;;;;;2.72;0.90;;;20.10;56.40;;;;;;5076133;28;20033;-62
2023/06/02 05:00:10;;;;;;;2.95;0.75;;;20.10;56.30;;;;;;5075845;28;20045;-62
2023/06/02 05:02:36;;;;;;;2.83;0.80;;;20.10;56.40;;;;;;5075186;28;20057;-62
2023/06/02 05:05:02;;;;;;;2.70;0.90;;;20.10;57.00;;;;;;5075894;28;20036;-62
2023/06/02 05:07:28;;;;;;;3.97;0.90;;;20.10;56.30;;;;;;5074577;28;20120;-62
2023/06/02 05:09:54;;;;;;;3.00;0.90;;;20.10;56.30;;;;;;5075952;28;20423;-62
2023/06/02 05:12:19;;;;;;;2.63;0.80;;;20.10;56.30;;;;;;5075623;28;20323;-61
2023/06/02 05:14:45;;;;;;;3.70;0.90;;;20.20;56.40;;;;;;5074774;28;20122;-62
2023/06/02 05:17:11;;;;;;;3.40;0.80;;;20.20;56.30;;;;;;5074026;28;20095;-62
2023/06/02 05:19:40;;;;;;;4.63;1.02;;;20.10;56.30;;;;;;5075836;28;20111;-61
2023/06/02 05:22:05;;;;;;;3.75;0.90;;;20.20;56.30;;;;;;5073625;28;20048;-62
2023/06/02 05:24:31;;;;;;;2.88;0.90;;;20.20;56.30;;;;;;5074187;28;20385;-61
2023/06/02 05:26:56;;;;;;;3.33;0.85;;;20.20;56.40;;;;;;5075309;28;20036;-62
2023/06/02 05:29:22;;;;;;;2.88;1.00;;;20.20;56.30;;;;;;5074389;28;20044;-62
2023/06/02 05:31:47;;;;;;;4.15;1.02;;;20.10;56.30;;;;;;5075522;28;20072;-62
2023/06/02 05:34:13;;;;;;;5.10;1.20;;;20.20;56.40;;;;;;5074937;28;20484;-61
2023/06/02 05:36:38;;;;;;;4.45;0.90;;;20.10;56.30;;;;;;5074620;28;20442;-62
2023/06/02 05:39:04;;;;;;;3.45;1.00;;;20.10;56.40;;;;;;5075352;28;20040;-62
2023/06/02 05:41:29;;;;;;;3.13;0.85;;;20.10;56.40;;;;;;5074474;28;20072;-62
2023/06/02 05:43:55;;;;;;;3.13;1.17;;;20.10;56.30;;;;;;5074509;28;20558;-62
2023/06/02 05:46:22;;;;;;;3.67;0.80;;;20.10;56.40;;;;;;5074985;28;20369;-62
2023/06/02 05:48:47;;;;;;;3.25;0.82;;;20.10;56.40;;;;;;5075217;28;20037;-62
2023/06/02 05:51:13;;;;;;;3.17;0.90;;;20.10;56.40;;;;;;5073692;28;20048;-61
2023/06/02 05:53:38;;;;;;;3.33;1.20;;;20.10;56.40;;;;;;5075122;28;20487;-62
2023/06/02 05:56:04;;;;;;;4.93;0.88;;;20.10;56.40;;;;;;5075029;28;20404;-62
2023/06/02 05:58:31;;;;;;;2.88;0.80;;;20.10;56.40;;;;;;5073449;28;20174;-62
2023/06/02 06:00:56;;;;;;;4.70;1.00;;;20.20;56.50;;;;;;5074887;28;20047;-61
2023/06/02 06:03:22;;;;;;;3.85;0.90;;;20.10;56.50;;;;;;5074613;28;20427;-62
2023/06/02 06:05:48;;;;;;;3.67;0.80;;;20.10;56.50;;;;;;5073732;28;20040;-62
2023/06/02 06:08:13;;;;;;;2.05;0.80;;;20.10;56.50;;;;;;5074235;28;20138;-62
2023/06/02 06:10:42;;;;;;;3.08;0.90;;;20.10;56.50;;;;;;5073799;28;20052;-62
2023/06/02 06:13:08;;;;;;;4.05;0.93;;;20.10;56.50;;;;;;5074071;28;20127;-61
2023/06/02 06:15:33;;;;;;;3.15;0.80;;;20.10;56.50;;;;;;5074779;28;20120;-62
2023/06/02 06:17:59;;;;;;;3.30;0.88;;;20.10;56.50;;;;;;5072325;28;20037;-62
2023/06/02 06:20:24;;;;;;;2.78;0.70;;;20.10;56.60;;;;;;5074274;28;20072;-61
2023/06/02 06:22:50;;;;;;;2.45;1.00;;;20.10;56.60;;;;;;5074547;28;20396;-62
2023/06/02 06:25:15;;;;;;;5.00;1.10;;;20.10;56.60;;;;;;5073455;28;20036;-62
2023/06/02 06:27:41;;;;;;;2.50;0.80;;;20.10;56.60;;;;;;5074136;28;20060;-62
2023/06/02 06:30:07;;;;;;;2.63;0.70;;;20.10;56.60;;;;;;5073960;28;20048;-62
2023/06/02 06:32:32;;;;;;;3.40;0.90;;;20.10;56.60;;;;;;5073343;28;20132;-62
2023/06/02 06:34:59;;;;;;;3.47;0.90;;;20.10;56.60;;;;;;5073940;28;20044;-62
2023/06/02 06:37:27;;;;;;;3.78;1.13;;;20.10;56.60;;;;;;5073908;28;20542;-61
2023/06/02 06:39:52;;;;;;;3.85;0.90;;;20.10;56.60;;;;;;5072341;28;20036;-62
2023/06/02 06:42:18;;;;;;;2.65;0.68;;;20.10;56.60;;;;;;5072208;28;20090;-62
2023/06/02 06:44:43;;;;;;;3.25;1.10;;;20.10;56.60;;;;;;5074124;28;20376;-62
2023/06/02 06:47:09;;;;;;;3.10;0.85;;;20.10;56.70;;;;;;5073015;28;20127;-61
2023/06/02 06:49:34;;;;;;;3.95;0.98;;;20.10;56.70;;;;;;5072423;28;20047;-61
2023/06/02 06:52:00;;;;;;;4.22;1.10;;;20.10;56.70;;;;;;5073711;28;20048;-61
2023/06/02 06:54:26;;;;;;;3.35;0.90;;;20.10;56.70;;;;;;5071954;28;20040;-61
2023/06/02 06:56:51;;;;;;;2.53;0.90;;;20.10;56.70;;;;;;5073488;28;20047;-62
2023/06/02 06:59:17;;;;;;;4.72;1.00;;;20.10;56.70;;;;;;5073247;28;20072;-61
2023/06/02 07:01:43;;;;;;;3.30;1.10;;;20.10;56.70;;;;;;5073034;28;20476;-61
2023/06/02 07:04:09;;;;;;;5.53;0.85;;;20.10;56.70;;;;;;5073426;28;20108;-61
2023/06/02 07:06:35;;;;;;;3.33;1.10;;;20.10;56.70;;;;;;5072218;28;20419;-61
2023/06/02 07:09:01;;;;;;;2.97;0.85;;;20.10;56.70;;;;;;5072924;28;20059;-61
2023/06/02 07:11:27;;;;;;;3.03;0.80;;;20.10;56.70;;;;;;5071985;28;20048;-61
2023/06/02 07:13:52;;;;;;;5.65;0.98;;;20.10;56.70;;;;;;5072721;28;20044;-61
2023/06/02 07:16:18;;;;;;;4.53;1.10;;;20.10;56.70;;;;;;5072935;28;20434;-61
2023/06/02 07:18:43;;;;;;;3.22;1.10;;;20.10;56.60;;;;;;5073185;28;20446;-61
2023/06/02 07:21:09;;;;;;;3.60;0.80;;;20.10;56.60;;;;;;5072227;28;20420;-62
2023/06/02 07:23:34;;;;;;;2.35;0.63;;;20.20;56.70;;;;;;5073472;28;20049;-61
2023/06/02 07:26:00;;;;;;;4.22;1.00;;;20.20;56.70;;;;;;5073142;28;20044;-61
2023/06/02 07:28:25;;;;;;;4.28;1.10;;;20.20;56.70;;;;;;5071820;28;20062;-61
2023/06/02 07:30:54;;;;;;;3.78;1.13;;;20.20;56.60;;;;;;5073125;28;20045;-61
2023/06/02 07:33:19;;;;;;;3.03;1.02;;;20.20;56.60;;;;;;5072895;28;20052;-61
2023/06/02 07:35:45;;;;;;;3.33;0.82;;;20.20;56.70;;;;;;5072435;28;20044;-61
2023/06/02 07:38:11;;;;;;;3.28;0.90;;;20.20;56.70;;;;;;5072999;28;20040;-62
2023/06/02 07:40:36;;;;;;;3.45;0.80;;;20.30;56.70;;;;;;5073057;28;20062;-60
2023/06/02 07:43:02;;;;;;;3.45;1.00;;;20.20;56.70;;;;;;5072211;28;20036;-60
2023/06/02 07:45:28;;;;;;;3.33;0.93;;;20.20;56.70;;;;;;5072915;28;20388;-60
2023/06/02 07:47:53;;;;;;;3.03;0.93;;;20.20;56.70;;;;;;5072825;28;20066;-61
2023/06/02 07:50:19;;;;;;;4.00;1.00;;;20.20;56.70;;;;;;5071952;28;20080;-62
2023/06/02 07:52:45;;;;;;;3.63;1.10;;;20.30;56.70;;;;;;5073044;28;20062;-61
2023/06/02 07:55:11;;;;;;;3.05;0.82;;;20.30;56.70;;;;;;5072766;28;20048;-61
2023/06/02 07:57:37;;;;;;;2.83;0.88;;;20.30;56.70;;;;;;5070703;28;20044;-61
2023/06/02 08:00:13;;;;;;;4.32;1.10;;;20.30;56.80;;;;;;5072940;28;20118;-61
2023/06/02 08:02:40;;;;;;;3.63;0.90;;;20.30;56.80;;;;;;5072580;28;20048;-61
2023/06/02 08:05:06;;;;;;;3.72;0.93;;;20.30;56.80;;;;;;5071856;28;20492;-61
2023/06/02 08:07:32;;;;;;;3.40;0.80;;;20.30;56.80;;;;;;5072777;28;20050;-61
2023/06/02 08:09:57;;;;;;;4.50;0.80;;;20.30;56.80;;;;;;5072617;28;20115;-61
2023/06/02 08:12:23;;;;;;;3.45;0.68;;;20.30;57.10;;;;;;5070530;28;20052;-61
2023/06/02 08:14:48;;;;;;;3.58;0.90;;;20.30;56.80;;;;;;5072656;28;20049;-62
2023/06/02 08:17:14;;;;;;;3.92;0.95;;;20.30;56.80;;;;;;5071299;28;20041;-62
2023/06/02 08:19:40;;;;;;;2.30;0.90;;;20.30;56.80;;;;;;5071324;28;20119;-62
2023/06/02 08:22:05;;;;;;;3.95;1.15;;;20.30;56.80;;;;;;5072662;28;20051;-61
2023/06/02 08:24:31;;;;;;;4.00;0.90;;;20.40;56.90;;;;;;5071806;28;20094;-61
2023/06/02 08:26:57;;;;;;;4.55;1.20;;;20.40;56.90;;;;;;5071391;28;20048;-62
2023/06/02 08:29:23;;;;;;;3.50;1.00;;;20.40;56.90;;;;;;5072509;28;20049;-61
2023/06/02 08:31:49;;;;;;;2.03;0.90;;;20.40;56.90;;;;;;5071684;28;20091;-61
2023/06/02 08:34:20;;;;;;;3.03;0.88;;;20.40;56.90;;;;;;5072356;28;20045;-61
2023/06/02 08:36:57;;;;;;;5.70;1.00;;;20.50;56.90;;;;;;5072514;28;20051;-62
2023/06/02 08:39:23;;;;;;;3.05;1.10;;;20.50;56.90;;;;;;5070319;28;20045;-61
2023/06/02 08:41:49;;;;;;;3.28;0.85;;;20.50;56.90;;;;;;5072130;28;20036;-61
2023/06/02 08:44:14;;;;;;;4.00;1.00;;;20.50;57.20;;;;;;5070692;28;20045;-61
2023/06/02 08:46:40;;;;;;;4.20;1.00;;;20.50;56.90;;;;;;5071772;28;20111;-61
2023/06/02 08:49:05;;;;;;;3.67;0.80;;;20.50;57.00;;;;;;5071069;28;20048;-61
2023/06/02 08:51:33;;;;;;;3.10;0.88;;;20.50;56.90;;;;;;5071240;28;20045;-61
2023/06/02 08:53:59;;;;;;;4.55;1.00;;;20.50;56.90;;;;;;5053724;28;20115;-61
2023/06/02 08:56:24;;;;;;;4.25;1.20;;;20.50;57.00;;;;;;5070743;28;20534;-62
2023/06/02 08:58:50;;;;;;;4.05;1.20;;;20.50;57.00;;;;;;5071063;28;20053;-61
2023/06/02 09:01:16;;;;;;;3.08;0.80;;;20.50;57.00;;;;;;5070066;28;20049;-61
2023/06/02 09:03:42;;;;;;;3.78;1.00;;;20.50;57.00;;;;;;5072311;28;20036;-61
2023/06/02 09:06:25;;;;;;;2.83;1.05;;;20.50;57.00;;;;;;5071996;28;20040;-62
2023/06/02 09:08:57;;;;;;;2.65;1.00;;;20.50;57.10;;;;;;5072121;28;20059;-61
2023/06/02 09:11:24;;;;;;;4.60;1.10;;;20.60;57.10;;;;;;5071467;28;20530;-61
2023/06/02 09:13:49;;;;;;;4.25;1.25;;;20.60;57.00;;;;;;5071518;28;20044;-61
2023/06/02 09:16:15;;;;;;;3.53;0.90;;;20.60;57.00;;;;;;5072214;28;20104;-61
2023/06/02 09:18:55;;;;;;;3.08;1.00;;;20.60;57.00;;;;;;5075831;28;20097;-59
2023/06/02 09:21:32;;;;;;;4.28;1.20;;;20.70;57.00;;;;;;5073659;28;20052;-61
2023/06/02 09:23:58;;;;;;;3.97;1.10;;;20.70;57.00;;;;;;5075787;28;20068;-61
2023/06/02 09:26:25;;;;;;;4.55;1.25;;;20.70;56.90;;;;;;5075332;28;20048;-61
2023/06/02 09:29:12;;;;;;;4.10;0.93;;;20.70;56.90;;;;;;5074418;28;20097;-61
2023/06/02 09:31:43;;;;;;;2.55;0.80;;;20.70;56.90;;;;;;5075544;28;20080;-61
2023/06/02 09:34:08;;;;;;;4.18;0.98;;;20.70;56.90;;;;;;5075102;28;20048;-62
2023/06/02 09:36:34;;;;;;;5.75;0.90;;;20.80;56.90;;;;;;5074580;28;20047;-62
2023/06/02 09:39:01;;;;;;;5.45;1.17;;;20.80;56.80;;;;;;5075489;28;20093;-61
2023/06/02 09:41:28;;;;;;;2.92;1.00;;;20.80;56.80;;;;;;5074943;28;20079;-61
2023/06/02 09:43:56;;;;;;;3.97;1.10;;;20.80;56.80;;;;;;5073427;28;20059;-62
2023/06/02 09:46:21;;;;;;;3.30;0.90;;;20.90;56.80;;;;;;5074801;28;20048;-61
2023/06/02 09:48:55;;;;;;;4.40;1.30;;;20.90;56.80;;;;;;5072951;28;20369;-62
2023/06/02 09:51:22;;;;;;;3.65;0.95;;;20.90;56.70;;;;;;5074526;28;20496;-61
2023/06/02 09:53:47;;;;;;;2.60;0.80;;;20.90;56.70;;;;;;5075061;28;20041;-61
2023/06/02 09:56:14;;;;;;;5.35;1.08;;;20.90;56.70;;;;;;5074061;28;20044;-61
2023/06/02 09:58:40;;;;;;;5.07;1.17;;;20.90;56.70;;;;;;5073580;28;20040;-61
2023/06/02 10:01:05;;;;;;;2.50;0.90;;;21.00;56.70;;;;;;5073636;28;20120;-61
2023/06/02 10:03:31;;;;;;;3.38;1.10;;;21.00;56.60;;;;;;5073905;28;20391;-61
2023/06/02 10:06:07;;;;;;;3.50;1.10;;;21.00;56.60;;;;;;5075037;28;20059;-61
2023/06/02 10:08:48;;;;;;;4.75;1.08;;;21.00;56.60;;;;;;5073812;28;20490;-61
2023/06/02 10:11:21;;;;;;;4.88;1.20;;;21.00;56.60;;;;;;5072470;28;20121;-61
2023/06/02 10:13:49;;;;;;;3.10;1.10;;;21.00;56.50;;;;;;5073453;28;20051;-61
2023/06/02 10:16:38;;;;;;;1.77;0.90;;;21.00;56.50;;;;;;5073095;28;20130;-61
2023/06/02 10:19:30;;;;;;;3.53;0.80;;;21.00;56.50;;;;;;5072667;28;20044;-61
2023/06/02 10:22:22;;;;;;;2.65;0.90;;;21.10;56.50;;;;;;5073157;28;20048;-61
2023/06/02 10:25:02;;;;;;;4.57;1.00;;;21.10;56.50;;;;;;5070548;28;20048;-61
2023/06/02 10:27:35;;;;;;;3.95;1.05;;;21.10;56.50;;;;;;5073628;28;20056;-61
2023/06/02 10:30:01;;;;;;;3.40;1.10;;;21.10;56.50;;;;;;5073786;28;20049;-61
2023/06/02 10:32:27;;;;;;;3.65;0.90;;;21.10;56.50;;;;;;5071271;28;20040;-61
2023/06/02 10:34:56;;;;;;;3.65;1.08;;;21.10;56.50;;;;;;5073191;28;20131;-61
2023/06/02 10:37:22;;;;;;;3.22;1.10;;;21.10;56.50;;;;;;5074047;28;20051;-61
2023/06/02 10:39:54;;;;;;;3.35;1.10;;;21.10;56.50;;;;;;5073684;28;20049;-61
2023/06/02 10:42:27;;;;;;;3.65;0.90;;;21.10;56.50;;;;;;5073819;28;20040;-61
2023/06/02 10:45:13;;;;;;;5.03;1.15;;;21.10;56.50;;;;;;5073300;28;20488;-62
2023/06/02 10:47:38;;;;;;;2.70;0.98;;;21.10;56.50;;;;;;5073764;28;20392;-61
2023/06/02 10:50:10;;;;;;;2.88;1.02;;;21.10;56.50;;;;;;5074096;28;20484;-61
2023/06/02 10:53:04;;;;;;;4.10;1.10;;;21.10;56.60;;;;;;5073294;28;20048;-61
2023/06/02 10:55:30;;;;;;;3.85;0.93;;;21.10;56.50;;;;;;5072474;28;20053;-60
2023/06/02 10:58:05;;;;;;;3.83;0.90;;;21.00;56.50;;;;;;5073821;28;20529;-61
2023/06/02 11:00:39;;;;;;;3.03;1.00;;;21.00;56.50;;;;;;5073250;28;20052;-62
2023/06/02 11:03:22;;;;;;;3.78;1.20;;;21.00;56.60;;;;;;5072434;28;20048;-61
2023/06/02 11:05:49;;;;;;;3.45;1.13;;;21.00;56.60;;;;;;5073441;28;20400;-61
2023/06/02 11:08:18;;;;;;;4.07;1.17;;;21.00;56.60;;;;;;5072748;28;20063;-61
2023/06/02 11:10:50;;;;;;;3.42;1.20;;;21.00;56.60;;;;;;5073672;28;20059;-61
2023/06/02 11:13:16;;;;;;;3.65;1.00;;;21.00;56.60;;;;;;5071272;28;20052;-61
2023/06/02 11:15:58;;;;;;;3.97;1.00;;;21.10;56.70;;;;;;5073693;28;20127;-61
2023/06/02 11:18:31;;;;;;;3.40;0.90;;;21.00;56.60;;;;;;5071889;28;20399;-61
2023/06/02 11:20:57;;;;;;;5.75;1.02;;;21.00;56.60;;;;;;5072627;28;20104;-61
2023/06/02 11:23:23;;;;;;;2.53;1.00;;;21.00;56.70;;;;;;5073191;28;20067;-61
2023/06/02 11:25:51;;;;;;;2.67;1.02;;;21.00;56.70;;;;;;5073305;28;20496;-60
2023/06/02 11:28:22;;;;;;;2.17;0.80;;;21.10;56.70;;;;;;5070499;28;20586;-61
2023/06/02 11:31:08;;;;;;;4.13;1.08;;;21.00;56.60;;;;;;5071793;28;20412;-60
2023/06/02 11:33:34;;;;;;;3.22;0.93;;;21.00;56.70;;;;;;5072022;28;20043;-61
2023/06/02 11:36:04;;;;;;;3.33;1.10;;;21.00;56.70;;;;;;5071504;28;20060;-61
2023/06/02 11:38:32;;;;;;;2.60;0.90;;;21.00;56.60;;;;;;5072605;28;20396;-61
2023/06/02 11:41:10;;;;;;;2.97;0.80;;;21.00;56.60;;;;;;5072820;28;20056;-61
2023/06/02 11:43:39;;;;;;;2.65;0.90;;;21.00;56.60;;;;;;5072701;28;20496;-61
2023/06/02 11:46:07;;;;;;;2.10;1.08;;;21.00;56.60;;;;;;5073283;28;20044;-61
2023/06/02 11:48:32;;;;;;;2.60;0.75;;;21.10;56.60;;;;;;5071002;28;20121;-61
2023/06/02 11:50:58;;;;;;;3.08;0.93;;;21.10;56.60;;;;;;5071660;28;20076;-61
2023/06/02 11:53:24;;;;;;;2.72;0.95;;;21.10;56.60;;;;;;5072784;28;20535;-61
2023/06/02 11:55:51;;;;;;;3.20;0.85;;;21.10;56.60;;;;;;5071950;28;20479;-61
2023/06/02 11:58:20;;;;;;;3.60;1.17;;;21.10;56.60;;;;;;5071512;28;20135;-60
2023/06/02 12:00:46;;;;;;;2.72;1.00;;;21.10;56.60;;;;;;5070609;28;20052;-61
2023/06/02 12:03:12;;;;;;;2.00;0.85;;;21.10;56.50;;;;;;5070893;28;20082;-61
2023/06/02 12:05:42;;;;;;;3.30;1.05;;;21.20;56.60;;;;;;5072893;28;20048;-60
2023/06/02 12:08:11;;;;;;;3.42;0.88;;;21.20;56.50;;;;;;5072335;28;20121;-61
2023/06/02 12:10:37;;;;;;;3.58;0.98;;;21.20;56.50;;;;;;5071989;28;20129;-60
2023/06/02 12:13:03;;;;;;;2.28;1.00;;;21.20;56.50;;;;;;5072789;28;20111;-61
2023/06/02 12:15:33;;;;;;;1.50;0.80;;;21.20;56.50;;;;;;5072587;28;20568;-61
2023/06/02 12:18:03;;;;;;;2.47;0.88;;;21.20;56.50;;;;;;5070542;28;20052;-61
2023/06/02 12:20:39;;;;;;;3.85;1.00;;;21.20;56.50;;;;;;5071199;28;20052;-61
2023/06/02 12:23:05;;;;;;;3.20;0.90;;;21.20;56.50;;;;;;5072457;28;20170;-61
2023/06/02 12:25:30;;;;;;;2.63;0.70;;;21.20;56.40;;;;;;5071783;28;20119;-60
2023/06/02 12:28:12;;;;;;;2.50;0.90;;;21.20;56.40;;;;;;5072328;28;20048;-61
2023/06/02 12:30:38;;;;;;;4.07;0.90;;;21.20;56.40;;;;;;5071606;28;20170;-61
2023/06/02 12:33:13;;;;;;;2.55;0.80;;;21.30;56.50;;;;;;5072744;28;20041;-61
2023/06/02 12:35:39;;;;;;;2.45;0.77;;;21.30;56.40;;;;;;5072302;28;20482;-60
2023/06/02 12:38:05;;;;;;;2.70;1.13;;;21.30;56.30;;;;;;5071972;28;20028;-61
2023/06/02 12:40:32;;;;;;;2.22;0.88;;;21.30;56.30;;;;;;5072361;28;20116;-61
2023/06/02 12:42:58;;;;;;;2.33;0.70;;;21.30;56.30;;;;;;5072277;28;20111;-60
2023/06/02 12:45:24;;;;;;;3.20;0.80;;;21.30;56.20;;;;;;5071307;28;20048;-61
2023/06/02 12:47:52;;;;;;;2.88;1.00;;;21.40;56.30;;;;;;5072468;28;20040;-61
2023/06/02 12:50:19;;;;;;;2.80;0.90;;;21.40;56.20;;;;;;5071883;28;20053;-61